sensor_id;sensor_type;location;lat;lon;timestamp;P1;durP1;ratioP1;P2;durP2;ratioP2
31910;SDS011;18457;52.432;16.914;2023-05-10T00:00:25;13.00;;;7.30;;
31910;SDS011;18457;52.432;16.914;2023-05-10T00:03:12;14.10;;;6.80;;
31910;SDS011;18457;52.432;16.914;2023-05-10T00:05:44;15.60;;;7.40;;
31910;SDS011;18457;52.432;16.914;2023-05-10T00:08:16;13.30;;;6.70;;
31910;SDS011;18457;52.432;16.914;2023-05-10T00:10:48;11.60;;;6.40;;
31910;SDS011;18457;52.432;16.914;2023-05-10T00:13:22;14.30;;;6.70;;
31910;SDS011;18457;52.432;16.914;2023-05-10T00:15:54;14.70;;;7.20;;
31910;SDS011;18457;52.432;16.914;2023-05-10T00:18:25;11.60;;;7.00;;
31910;SDS011;18457;52.432;16.914;2023-05-10T00:20:57;10.60;;;6.60;;
31910;SDS011;18457;52.432;16.914;2023-05-10T00:23:29;15.40;;;7.00;;
31910;SDS011;18457;52.432;16.914;2023-05-10T00:26:01;13.20;;;7.00;;
31910;SDS011;18457;52.432;16.914;2023-05-10T00:28:33;13.20;;;5.20;;
31910;SDS011;18457;52.432;16.914;2023-05-10T00:31:05;15.80;;;6.80;;
31910;SDS011;18457;52.432;16.914;2023-05-10T00:33:37;13.90;;;7.00;;
31910;SDS011;18457;52.432;16.914;2023-05-10T00:36:08;11.70;;;6.50;;
31910;SDS011;18457;52.432;16.914;2023-05-10T00:38:40;12.70;;;7.10;;
31910;SDS011;18457;52.432;16.914;2023-05-10T00:41:12;12.70;;;7.70;;
31910;SDS011;18457;52.432;16.914;2023-05-10T00:43:45;10.90;;;6.70;;
31910;SDS011;18457;52.432;16.914;2023-05-10T00:46:17;16.20;;;7.20;;
31910;SDS011;18457;52.432;16.914;2023-05-10T00:48:50;11.60;;;7.10;;
31910;SDS011;18457;52.432;16.914;2023-05-10T00:51:22;14.10;;;7.40;;
31910;SDS011;18457;52.432;16.914;2023-05-10T00:53:54;14.40;;;6.70;;
31910;SDS011;18457;52.432;16.914;2023-05-10T00:56:26;13.60;;;6.60;;
31910;SDS011;18457;52.432;16.914;2023-05-10T00:58:58;13.80;;;7.80;;
31910;SDS011;18457;52.432;16.914;2023-05-10T01:01:31;13.70;;;7.30;;
31910;SDS011;18457;52.432;16.914;2023-05-10T01:04:03;14.10;;;6.40;;
31910;SDS011;18457;52.432;16.914;2023-05-10T01:06:35;17.50;;;7.20;;
31910;SDS011;18457;52.432;16.914;2023-05-10T01:09:07;11.40;;;6.70;;
31910;SDS011;18457;52.432;16.914;2023-05-10T01:11:40;15.00;;;7.30;;
31910;SDS011;18457;52.432;16.914;2023-05-10T01:14:12;13.30;;;7.00;;
31910;SDS011;18457;52.432;16.914;2023-05-10T01:16:46;12.50;;;7.30;;
31910;SDS011;18457;52.432;16.914;2023-05-10T01:19:22;9.30;;;6.60;;
31910;SDS011;18457;52.432;16.914;2023-05-10T01:21:58;10.40;;;6.60;;
31910;SDS011;18457;52.432;16.914;2023-05-10T01:24:44;16.30;;;7.00;;
31910;SDS011;18457;52.432;16.914;2023-05-10T01:30:59;12.50;;;6.50;;
31910;SDS011;18457;52.432;16.914;2023-05-10T01:33:42;12.30;;;6.80;;
31910;SDS011;18457;52.432;16.914;2023-05-10T01:36:19;15.00;;;6.90;;
31910;SDS011;18457;52.432;16.914;2023-05-10T01:39:01;16.20;;;6.50;;
31910;SDS011;18457;52.432;16.914;2023-05-10T01:41:42;14.80;;;7.20;;
31910;SDS011;18457;52.432;16.914;2023-05-10T01:44:20;17.80;;;7.40;;
31910;SDS011;18457;52.432;16.914;2023-05-10T01:47:01;15.40;;;7.00;;
31910;SDS011;18457;52.432;16.914;2023-05-10T01:49:38;10.90;;;7.00;;
31910;SDS011;18457;52.432;16.914;2023-05-10T01:52:14;13.60;;;6.90;;
31910;SDS011;18457;52.432;16.914;2023-05-10T01:54:50;11.20;;;7.20;;
31910;SDS011;18457;52.432;16.914;2023-05-10T01:57:26;14.50;;;6.70;;
31910;SDS011;18457;52.432;16.914;2023-05-10T02:00:03;19.70;;;6.90;;
31910;SDS011;18457;52.432;16.914;2023-05-10T02:02:44;11.70;;;6.70;;
31910;SDS011;18457;52.432;16.914;2023-05-10T02:05:18;13.20;;;7.30;;
31910;SDS011;18457;52.432;16.914;2023-05-10T02:07:52;12.40;;;6.70;;
31910;SDS011;18457;52.432;16.914;2023-05-10T02:10:25;12.40;;;7.10;;
31910;SDS011;18457;52.432;16.914;2023-05-10T02:12:59;13.20;;;7.20;;
31910;SDS011;18457;52.432;16.914;2023-05-10T02:15:33;13.10;;;6.80;;
31910;SDS011;18457;52.432;16.914;2023-05-10T02:18:06;12.50;;;7.60;;
31910;SDS011;18457;52.432;16.914;2023-05-10T02:20:40;12.60;;;6.90;;
31910;SDS011;18457;52.432;16.914;2023-05-10T02:23:14;11.10;;;6.40;;
31910;SDS011;18457;52.432;16.914;2023-05-10T02:25:47;11.90;;;7.00;;
31910;SDS011;18457;52.432;16.914;2023-05-10T02:28:22;11.70;;;6.70;;
31910;SDS011;18457;52.432;16.914;2023-05-10T02:30:57;13.00;;;7.20;;
31910;SDS011;18457;52.432;16.914;2023-05-10T02:33:29;12.60;;;6.80;;
31910;SDS011;18457;52.432;16.914;2023-05-10T02:36:04;10.50;;;6.90;;
31910;SDS011;18457;52.432;16.914;2023-05-10T02:38:38;12.90;;;7.00;;
31910;SDS011;18457;52.432;16.914;2023-05-10T02:41:10;10.20;;;6.90;;
31910;SDS011;18457;52.432;16.914;2023-05-10T02:43:43;12.10;;;6.60;;
31910;SDS011;18457;52.432;16.914;2023-05-10T02:46:16;12.70;;;7.70;;
31910;SDS011;18457;52.432;16.914;2023-05-10T02:48:48;14.10;;;7.10;;
31910;SDS011;18457;52.432;16.914;2023-05-10T02:51:20;17.40;;;7.10;;
31910;SDS011;18457;52.432;16.914;2023-05-10T02:53:59;16.90;;;8.00;;
31910;SDS011;18457;52.432;16.914;2023-05-10T02:56:37;12.40;;;6.90;;
31910;SDS011;18457;52.432;16.914;2023-05-10T02:59:15;13.90;;;6.80;;
31910;SDS011;18457;52.432;16.914;2023-05-10T03:01:47;10.40;;;7.20;;
31910;SDS011;18457;52.432;16.914;2023-05-10T03:04:19;10.80;;;6.60;;
31910;SDS011;18457;52.432;16.914;2023-05-10T03:06:52;16.00;;;7.60;;
31910;SDS011;18457;52.432;16.914;2023-05-10T03:09:24;14.80;;;6.90;;
31910;SDS011;18457;52.432;16.914;2023-05-10T03:11:56;9.80;;;6.60;;
31910;SDS011;18457;52.432;16.914;2023-05-10T03:14:42;17.50;;;7.40;;
31910;SDS011;18457;52.432;16.914;2023-05-10T03:17:25;12.70;;;6.90;;
31910;SDS011;18457;52.432;16.914;2023-05-10T03:22:43;16.20;;;7.20;;
31910;SDS011;18457;52.432;16.914;2023-05-10T03:25:17;14.30;;;7.60;;
31910;SDS011;18457;52.432;16.914;2023-05-10T03:27:52;12.60;;;7.20;;
31910;SDS011;18457;52.432;16.914;2023-05-10T03:30:24;11.10;;;7.60;;
31910;SDS011;18457;52.432;16.914;2023-05-10T03:32:58;11.90;;;6.80;;
31910;SDS011;18457;52.432;16.914;2023-05-10T03:35:38;14.30;;;7.40;;
31910;SDS011;18457;52.432;16.914;2023-05-10T03:38:10;13.80;;;7.60;;
31910;SDS011;18457;52.432;16.914;2023-05-10T03:40:42;9.70;;;5.50;;
31910;SDS011;18457;52.432;16.914;2023-05-10T03:43:14;14.00;;;7.20;;
31910;SDS011;18457;52.432;16.914;2023-05-10T03:45:46;16.60;;;7.40;;
31910;SDS011;18457;52.432;16.914;2023-05-10T03:48:18;14.40;;;7.40;;
31910;SDS011;18457;52.432;16.914;2023-05-10T03:50:49;13.40;;;7.00;;
31910;SDS011;18457;52.432;16.914;2023-05-10T03:53:21;9.00;;;5.20;;
31910;SDS011;18457;52.432;16.914;2023-05-10T03:55:53;14.10;;;7.80;;
31910;SDS011;18457;52.432;16.914;2023-05-10T03:58:25;13.70;;;8.00;;
31910;SDS011;18457;52.432;16.914;2023-05-10T04:00:57;14.60;;;7.70;;
31910;SDS011;18457;52.432;16.914;2023-05-10T04:03:29;16.40;;;7.70;;
31910;SDS011;18457;52.432;16.914;2023-05-10T04:06:01;13.90;;;8.20;;
31910;SDS011;18457;52.432;16.914;2023-05-10T04:08:34;11.90;;;7.60;;
31910;SDS011;18457;52.432;16.914;2023-05-10T04:11:06;14.00;;;7.40;;
31910;SDS011;18457;52.432;16.914;2023-05-10T04:13:38;14.80;;;8.00;;
31910;SDS011;18457;52.432;16.914;2023-05-10T04:16:11;14.60;;;7.20;;
31910;SDS011;18457;52.432;16.914;2023-05-10T04:18:43;12.00;;;7.90;;
31910;SDS011;18457;52.432;16.914;2023-05-10T04:21:15;15.70;;;8.00;;
31910;SDS011;18457;52.432;16.914;2023-05-10T04:23:47;15.50;;;7.70;;
31910;SDS011;18457;52.432;16.914;2023-05-10T04:26:19;14.80;;;7.70;;
31910;SDS011;18457;52.432;16.914;2023-05-10T04:28:50;12.80;;;7.20;;
31910;SDS011;18457;52.432;16.914;2023-05-10T04:31:22;11.60;;;7.20;;
31910;SDS011;18457;52.432;16.914;2023-05-10T04:33:55;20.20;;;8.60;;
31910;SDS011;18457;52.432;16.914;2023-05-10T04:36:26;19.60;;;7.50;;
31910;SDS011;18457;52.432;16.914;2023-05-10T04:38:58;13.90;;;7.50;;
31910;SDS011;18457;52.432;16.914;2023-05-10T04:41:31;15.10;;;7.50;;
31910;SDS011;18457;52.432;16.914;2023-05-10T04:44:03;14.40;;;8.40;;
31910;SDS011;18457;52.432;16.914;2023-05-10T04:46:36;17.10;;;9.40;;
31910;SDS011;18457;52.432;16.914;2023-05-10T04:49:08;18.90;;;7.90;;
31910;SDS011;18457;52.432;16.914;2023-05-10T04:51:40;15.50;;;7.80;;
31910;SDS011;18457;52.432;16.914;2023-05-10T04:54:12;13.70;;;7.60;;
31910;SDS011;18457;52.432;16.914;2023-05-10T04:56:44;13.30;;;7.00;;
31910;SDS011;18457;52.432;16.914;2023-05-10T04:59:16;15.80;;;8.10;;
31910;SDS011;18457;52.432;16.914;2023-05-10T05:01:48;17.60;;;7.80;;
31910;SDS011;18457;52.432;16.914;2023-05-10T05:04:19;13.30;;;8.30;;
31910;SDS011;18457;52.432;16.914;2023-05-10T05:06:53;13.00;;;8.40;;
31910;SDS011;18457;52.432;16.914;2023-05-10T05:09:24;17.80;;;8.20;;
31910;SDS011;18457;52.432;16.914;2023-05-10T05:11:57;13.50;;;7.70;;
31910;SDS011;18457;52.432;16.914;2023-05-10T05:14:29;17.30;;;8.80;;
31910;SDS011;18457;52.432;16.914;2023-05-10T05:17:00;17.20;;;8.00;;
31910;SDS011;18457;52.432;16.914;2023-05-10T05:19:32;15.90;;;9.50;;
31910;SDS011;18457;52.432;16.914;2023-05-10T05:22:06;14.40;;;7.30;;
31910;SDS011;18457;52.432;16.914;2023-05-10T05:24:37;14.00;;;8.00;;
31910;SDS011;18457;52.432;16.914;2023-05-10T05:27:09;9.50;;;5.80;;
31910;SDS011;18457;52.432;16.914;2023-05-10T05:29:41;18.50;;;8.10;;
31910;SDS011;18457;52.432;16.914;2023-05-10T05:32:13;15.70;;;6.20;;
31910;SDS011;18457;52.432;16.914;2023-05-10T05:34:45;25.60;;;6.80;;
31910;SDS011;18457;52.432;16.914;2023-05-10T05:37:17;14.40;;;7.20;;
31910;SDS011;18457;52.432;16.914;2023-05-10T05:42:20;15.90;;;8.10;;
31910;SDS011;18457;52.432;16.914;2023-05-10T05:44:52;25.50;;;7.80;;
31910;SDS011;18457;52.432;16.914;2023-05-10T05:47:24;15.40;;;8.40;;
31910;SDS011;18457;52.432;16.914;2023-05-10T05:49:56;12.80;;;7.60;;
31910;SDS011;18457;52.432;16.914;2023-05-10T05:52:27;13.60;;;8.10;;
31910;SDS011;18457;52.432;16.914;2023-05-10T05:55:00;17.40;;;7.60;;
31910;SDS011;18457;52.432;16.914;2023-05-10T05:57:32;14.90;;;7.90;;
31910;SDS011;18457;52.432;16.914;2023-05-10T06:02:42;15.00;;;8.00;;
31910;SDS011;18457;52.432;16.914;2023-05-10T06:05:15;15.90;;;8.10;;
31910;SDS011;18457;52.432;16.914;2023-05-10T06:07:47;12.10;;;7.30;;
31910;SDS011;18457;52.432;16.914;2023-05-10T06:10:19;20.40;;;8.40;;
31910;SDS011;18457;52.432;16.914;2023-05-10T06:12:50;15.70;;;7.20;;
31910;SDS011;18457;52.432;16.914;2023-05-10T06:15:23;23.00;;;7.90;;
31910;SDS011;18457;52.432;16.914;2023-05-10T06:17:55;18.60;;;7.40;;
31910;SDS011;18457;52.432;16.914;2023-05-10T06:20:26;12.70;;;6.90;;
31910;SDS011;18457;52.432;16.914;2023-05-10T06:23:00;17.20;;;8.20;;
31910;SDS011;18457;52.432;16.914;2023-05-10T06:25:32;15.90;;;7.00;;
31910;SDS011;18457;52.432;16.914;2023-05-10T06:28:04;15.10;;;8.70;;
31910;SDS011;18457;52.432;16.914;2023-05-10T06:30:36;16.70;;;8.50;;
31910;SDS011;18457;52.432;16.914;2023-05-10T06:33:08;15.50;;;7.80;;
31910;SDS011;18457;52.432;16.914;2023-05-10T06:35:40;12.70;;;7.30;;
31910;SDS011;18457;52.432;16.914;2023-05-10T06:38:12;13.80;;;7.70;;
31910;SDS011;18457;52.432;16.914;2023-05-10T06:40:44;14.30;;;6.10;;
31910;SDS011;18457;52.432;16.914;2023-05-10T06:43:16;19.50;;;8.10;;
31910;SDS011;18457;52.432;16.914;2023-05-10T06:45:48;13.90;;;7.60;;
31910;SDS011;18457;52.432;16.914;2023-05-10T06:48:21;14.60;;;8.20;;
31910;SDS011;18457;52.432;16.914;2023-05-10T06:50:53;12.10;;;7.10;;
31910;SDS011;18457;52.432;16.914;2023-05-10T06:53:24;24.90;;;8.50;;
31910;SDS011;18457;52.432;16.914;2023-05-10T06:55:56;12.50;;;7.60;;
31910;SDS011;18457;52.432;16.914;2023-05-10T06:58:29;13.00;;;6.50;;
31910;SDS011;18457;52.432;16.914;2023-05-10T07:01:03;15.90;;;7.30;;
31910;SDS011;18457;52.432;16.914;2023-05-10T07:03:35;14.90;;;7.70;;
31910;SDS011;18457;52.432;16.914;2023-05-10T07:06:07;17.90;;;8.20;;
31910;SDS011;18457;52.432;16.914;2023-05-10T07:08:53;12.10;;;6.60;;
31910;SDS011;18457;52.432;16.914;2023-05-10T07:11:26;21.20;;;8.40;;
31910;SDS011;18457;52.432;16.914;2023-05-10T07:13:57;8.20;;;5.00;;
31910;SDS011;18457;52.432;16.914;2023-05-10T07:16:29;11.20;;;7.30;;
31910;SDS011;18457;52.432;16.914;2023-05-10T07:19:01;10.30;;;7.20;;
31910;SDS011;18457;52.432;16.914;2023-05-10T07:21:34;15.20;;;7.20;;
31910;SDS011;18457;52.432;16.914;2023-05-10T07:24:06;19.90;;;8.00;;
31910;SDS011;18457;52.432;16.914;2023-05-10T07:26:38;15.20;;;6.90;;
31910;SDS011;18457;52.432;16.914;2023-05-10T07:29:10;13.80;;;7.00;;
31910;SDS011;18457;52.432;16.914;2023-05-10T07:31:41;11.80;;;6.10;;
31910;SDS011;18457;52.432;16.914;2023-05-10T07:34:13;14.90;;;6.80;;
31910;SDS011;18457;52.432;16.914;2023-05-10T07:36:45;11.40;;;6.80;;
31910;SDS011;18457;52.432;16.914;2023-05-10T07:39:17;8.80;;;6.00;;
31910;SDS011;18457;52.432;16.914;2023-05-10T07:41:56;11.60;;;6.10;;
31910;SDS011;18457;52.432;16.914;2023-05-10T07:44:27;13.70;;;6.80;;
31910;SDS011;18457;52.432;16.914;2023-05-10T07:46:59;10.60;;;5.80;;
31910;SDS011;18457;52.432;16.914;2023-05-10T07:49:31;11.50;;;6.10;;
31910;SDS011;18457;52.432;16.914;2023-05-10T07:52:04;10.70;;;6.40;;
31910;SDS011;18457;52.432;16.914;2023-05-10T07:57:06;8.50;;;6.20;;
31910;SDS011;18457;52.432;16.914;2023-05-10T07:59:38;15.40;;;6.30;;
31910;SDS011;18457;52.432;16.914;2023-05-10T08:02:10;9.90;;;5.70;;
31910;SDS011;18457;52.432;16.914;2023-05-10T08:04:42;13.40;;;6.40;;
31910;SDS011;18457;52.432;16.914;2023-05-10T08:07:14;15.00;;;6.60;;
31910;SDS011;18457;52.432;16.914;2023-05-10T08:09:46;11.10;;;6.50;;
31910;SDS011;18457;52.432;16.914;2023-05-10T08:12:18;12.10;;;6.00;;
31910;SDS011;18457;52.432;16.914;2023-05-10T08:14:50;13.30;;;6.20;;
31910;SDS011;18457;52.432;16.914;2023-05-10T08:17:22;9.00;;;6.20;;
31910;SDS011;18457;52.432;16.914;2023-05-10T08:19:54;16.00;;;5.90;;
31910;SDS011;18457;52.432;16.914;2023-05-10T08:22:26;7.30;;;5.40;;
31910;SDS011;18457;52.432;16.914;2023-05-10T08:24:58;15.60;;;4.90;;
31910;SDS011;18457;52.432;16.914;2023-05-10T08:27:30;12.10;;;5.90;;
31910;SDS011;18457;52.432;16.914;2023-05-10T08:30:05;14.30;;;5.50;;
31910;SDS011;18457;52.432;16.914;2023-05-10T08:32:38;16.90;;;5.00;;
31910;SDS011;18457;52.432;16.914;2023-05-10T08:35:10;15.40;;;5.80;;
31910;SDS011;18457;52.432;16.914;2023-05-10T08:37:42;13.00;;;6.50;;
31910;SDS011;18457;52.432;16.914;2023-05-10T08:40:14;7.20;;;3.90;;
31910;SDS011;18457;52.432;16.914;2023-05-10T08:42:51;10.00;;;5.70;;
31910;SDS011;18457;52.432;16.914;2023-05-10T08:45:29;12.50;;;5.60;;
31910;SDS011;18457;52.432;16.914;2023-05-10T08:48:06;10.80;;;5.30;;
31910;SDS011;18457;52.432;16.914;2023-05-10T08:50:40;11.20;;;4.80;;
31910;SDS011;18457;52.432;16.914;2023-05-10T08:53:13;12.70;;;5.70;;
31910;SDS011;18457;52.432;16.914;2023-05-10T08:55:46;14.20;;;5.10;;
31910;SDS011;18457;52.432;16.914;2023-05-10T08:58:18;6.40;;;4.00;;
31910;SDS011;18457;52.432;16.914;2023-05-10T09:00:50;12.90;;;4.50;;
31910;SDS011;18457;52.432;16.914;2023-05-10T09:03:23;13.70;;;3.60;;
31910;SDS011;18457;52.432;16.914;2023-05-10T09:05:55;11.60;;;4.40;;
31910;SDS011;18457;52.432;16.914;2023-05-10T09:08:27;7.80;;;4.30;;
31910;SDS011;18457;52.432;16.914;2023-05-10T09:11:00;11.40;;;5.30;;
31910;SDS011;18457;52.432;16.914;2023-05-10T09:13:32;12.80;;;4.60;;
31910;SDS011;18457;52.432;16.914;2023-05-10T09:16:05;18.40;;;4.30;;
31910;SDS011;18457;52.432;16.914;2023-05-10T09:18:49;10.40;;;4.40;;
31910;SDS011;18457;52.432;16.914;2023-05-10T09:23:52;12.00;;;3.70;;
31910;SDS011;18457;52.432;16.914;2023-05-10T09:26:24;8.30;;;3.70;;
31910;SDS011;18457;52.432;16.914;2023-05-10T09:28:57;13.60;;;4.20;;
31910;SDS011;18457;52.432;16.914;2023-05-10T09:31:47;9.90;;;3.60;;
31910;SDS011;18457;52.432;16.914;2023-05-10T09:34:22;7.00;;;3.20;;
31910;SDS011;18457;52.432;16.914;2023-05-10T09:37:03;6.00;;;3.10;;
31910;SDS011;18457;52.432;16.914;2023-05-10T09:39:35;6.30;;;3.30;;
31910;SDS011;18457;52.432;16.914;2023-05-10T09:42:09;9.00;;;3.20;;
31910;SDS011;18457;52.432;16.914;2023-05-10T09:44:41;14.00;;;3.80;;
31910;SDS011;18457;52.432;16.914;2023-05-10T09:47:18;12.00;;;3.70;;
31910;SDS011;18457;52.432;16.914;2023-05-10T09:49:50;8.40;;;3.20;;
31910;SDS011;18457;52.432;16.914;2023-05-10T09:52:26;8.60;;;3.40;;
31910;SDS011;18457;52.432;16.914;2023-05-10T09:54:58;7.10;;;2.90;;
31910;SDS011;18457;52.432;16.914;2023-05-10T09:57:30;9.30;;;3.50;;
31910;SDS011;18457;52.432;16.914;2023-05-10T10:00:03;4.90;;;3.30;;
31910;SDS011;18457;52.432;16.914;2023-05-10T10:02:53;9.80;;;3.30;;
31910;SDS011;18457;52.432;16.914;2023-05-10T10:05:29;6.10;;;3.30;;
31910;SDS011;18457;52.432;16.914;2023-05-10T10:08:03;15.90;;;4.30;;
31910;SDS011;18457;52.432;16.914;2023-05-10T10:10:35;6.70;;;3.40;;
31910;SDS011;18457;52.432;16.914;2023-05-10T10:13:07;8.40;;;3.50;;
31910;SDS011;18457;52.432;16.914;2023-05-10T10:15:40;6.60;;;3.40;;
31910;SDS011;18457;52.432;16.914;2023-05-10T10:18:14;6.70;;;3.40;;
31910;SDS011;18457;52.432;16.914;2023-05-10T10:20:47;5.50;;;2.90;;
31910;SDS011;18457;52.432;16.914;2023-05-10T10:23:19;6.50;;;3.10;;
31910;SDS011;18457;52.432;16.914;2023-05-10T10:25:52;8.00;;;3.90;;
31910;SDS011;18457;52.432;16.914;2023-05-10T10:28:26;7.50;;;4.00;;
31910;SDS011;18457;52.432;16.914;2023-05-10T10:31:13;24.80;;;3.70;;
31910;SDS011;18457;52.432;16.914;2023-05-10T10:33:59;6.00;;;3.10;;
31910;SDS011;18457;52.432;16.914;2023-05-10T10:36:40;9.70;;;3.60;;
31910;SDS011;18457;52.432;16.914;2023-05-10T10:39:15;7.00;;;3.10;;
31910;SDS011;18457;52.432;16.914;2023-05-10T10:44:26;9.70;;;3.20;;
31910;SDS011;18457;52.432;16.914;2023-05-10T10:47:09;5.40;;;3.30;;
31910;SDS011;18457;52.432;16.914;2023-05-10T10:50:05;6.40;;;3.20;;
31910;SDS011;18457;52.432;16.914;2023-05-10T10:52:38;13.00;;;3.30;;
31910;SDS011;18457;52.432;16.914;2023-05-10T10:57:46;6.80;;;2.90;;
31910;SDS011;18457;52.432;16.914;2023-05-10T11:00:21;5.70;;;3.00;;
31910;SDS011;18457;52.432;16.914;2023-05-10T11:02:55;9.80;;;3.20;;
31910;SDS011;18457;52.432;16.914;2023-05-10T11:08:16;8.90;;;3.40;;
31910;SDS011;18457;52.432;16.914;2023-05-10T11:10:51;9.60;;;2.50;;
31910;SDS011;18457;52.432;16.914;2023-05-10T11:13:37;3.40;;;3.00;;
31910;SDS011;18457;52.432;16.914;2023-05-10T11:16:11;5.20;;;2.90;;
31910;SDS011;18457;52.432;16.914;2023-05-10T11:21:34;11.20;;;3.20;;
31910;SDS011;18457;52.432;16.914;2023-05-10T11:24:17;10.30;;;3.00;;
31910;SDS011;18457;52.432;16.914;2023-05-10T11:26:50;9.10;;;3.40;;
31910;SDS011;18457;52.432;16.914;2023-05-10T11:31:56;7.80;;;3.40;;
31910;SDS011;18457;52.432;16.914;2023-05-10T11:34:30;15.70;;;4.50;;
31910;SDS011;18457;52.432;16.914;2023-05-10T11:37:03;7.00;;;3.60;;
31910;SDS011;18457;52.432;16.914;2023-05-10T11:39:34;7.40;;;3.10;;
31910;SDS011;18457;52.432;16.914;2023-05-10T11:42:06;9.50;;;3.70;;
31910;SDS011;18457;52.432;16.914;2023-05-10T11:44:40;12.50;;;3.80;;
31910;SDS011;18457;52.432;16.914;2023-05-10T11:47:14;7.40;;;3.40;;
31910;SDS011;18457;52.432;16.914;2023-05-10T11:49:47;26.90;;;4.50;;
31910;SDS011;18457;52.432;16.914;2023-05-10T11:52:19;6.90;;;3.30;;
31910;SDS011;18457;52.432;16.914;2023-05-10T11:54:54;7.60;;;3.40;;
31910;SDS011;18457;52.432;16.914;2023-05-10T11:57:27;8.20;;;3.30;;
31910;SDS011;18457;52.432;16.914;2023-05-10T12:00:00;5.20;;;3.40;;
31910;SDS011;18457;52.432;16.914;2023-05-10T12:02:35;6.80;;;2.80;;
31910;SDS011;18457;52.432;16.914;2023-05-10T12:05:09;8.80;;;3.70;;
31910;SDS011;18457;52.432;16.914;2023-05-10T12:07:41;6.40;;;3.80;;
31910;SDS011;18457;52.432;16.914;2023-05-10T12:10:14;5.70;;;3.20;;
31910;SDS011;18457;52.432;16.914;2023-05-10T12:12:47;17.00;;;3.80;;
31910;SDS011;18457;52.432;16.914;2023-05-10T12:15:22;9.40;;;3.20;;
31910;SDS011;18457;52.432;16.914;2023-05-10T12:17:54;7.70;;;3.60;;
31910;SDS011;18457;52.432;16.914;2023-05-10T12:20:29;7.80;;;3.80;;
31910;SDS011;18457;52.432;16.914;2023-05-10T12:23:01;18.00;;;3.50;;
31910;SDS011;18457;52.432;16.914;2023-05-10T12:25:35;9.30;;;3.90;;
31910;SDS011;18457;52.432;16.914;2023-05-10T12:28:08;16.00;;;2.80;;
31910;SDS011;18457;52.432;16.914;2023-05-10T12:30:40;5.40;;;3.70;;
31910;SDS011;18457;52.432;16.914;2023-05-10T12:33:12;9.30;;;3.30;;
31910;SDS011;18457;52.432;16.914;2023-05-10T12:35:46;5.30;;;3.70;;
31910;SDS011;18457;52.432;16.914;2023-05-10T12:38:29;7.70;;;3.50;;
31910;SDS011;18457;52.432;16.914;2023-05-10T12:41:05;7.30;;;3.20;;
31910;SDS011;18457;52.432;16.914;2023-05-10T12:43:39;8.10;;;3.50;;
31910;SDS011;18457;52.432;16.914;2023-05-10T12:48:44;3.80;;;3.20;;
31910;SDS011;18457;52.432;16.914;2023-05-10T12:51:25;8.80;;;3.90;;
31910;SDS011;18457;52.432;16.914;2023-05-10T12:53:57;6.90;;;3.30;;
31910;SDS011;18457;52.432;16.914;2023-05-10T12:56:29;8.20;;;4.50;;
31910;SDS011;18457;52.432;16.914;2023-05-10T12:59:01;5.30;;;3.40;;
31910;SDS011;18457;52.432;16.914;2023-05-10T13:01:33;6.50;;;4.40;;
31910;SDS011;18457;52.432;16.914;2023-05-10T13:04:06;5.80;;;3.60;;
31910;SDS011;18457;52.432;16.914;2023-05-10T13:06:37;5.20;;;3.40;;
31910;SDS011;18457;52.432;16.914;2023-05-10T13:09:09;6.00;;;3.20;;
31910;SDS011;18457;52.432;16.914;2023-05-10T13:11:41;6.90;;;3.50;;
31910;SDS011;18457;52.432;16.914;2023-05-10T13:16:44;7.10;;;4.20;;
31910;SDS011;18457;52.432;16.914;2023-05-10T13:19:16;6.30;;;3.50;;
31910;SDS011;18457;52.432;16.914;2023-05-10T13:21:48;6.00;;;4.00;;
31910;SDS011;18457;52.432;16.914;2023-05-10T13:24:20;6.30;;;3.20;;
31910;SDS011;18457;52.432;16.914;2023-05-10T13:26:53;10.30;;;5.50;;
31910;SDS011;18457;52.432;16.914;2023-05-10T13:29:25;11.50;;;4.30;;
31910;SDS011;18457;52.432;16.914;2023-05-10T13:31:57;8.80;;;3.70;;
31910;SDS011;18457;52.432;16.914;2023-05-10T13:34:29;9.60;;;4.10;;
31910;SDS011;18457;52.432;16.914;2023-05-10T13:37:01;5.90;;;3.40;;
31910;SDS011;18457;52.432;16.914;2023-05-10T13:39:33;6.60;;;3.50;;
31910;SDS011;18457;52.432;16.914;2023-05-10T13:42:06;9.20;;;3.40;;
31910;SDS011;18457;52.432;16.914;2023-05-10T13:44:38;8.10;;;3.50;;
31910;SDS011;18457;52.432;16.914;2023-05-10T13:47:10;4.20;;;3.20;;
31910;SDS011;18457;52.432;16.914;2023-05-10T13:49:42;5.60;;;3.30;;
31910;SDS011;18457;52.432;16.914;2023-05-10T13:52:14;7.40;;;3.70;;
31910;SDS011;18457;52.432;16.914;2023-05-10T13:54:47;17.50;;;3.90;;
31910;SDS011;18457;52.432;16.914;2023-05-10T13:57:21;4.70;;;3.70;;
31910;SDS011;18457;52.432;16.914;2023-05-10T13:59:54;5.80;;;3.60;;
31910;SDS011;18457;52.432;16.914;2023-05-10T14:02:27;13.80;;;3.80;;
31910;SDS011;18457;52.432;16.914;2023-05-10T14:05:00;12.70;;;3.60;;
31910;SDS011;18457;52.432;16.914;2023-05-10T14:07:33;6.60;;;3.20;;
31910;SDS011;18457;52.432;16.914;2023-05-10T14:10:06;4.70;;;3.90;;
31910;SDS011;18457;52.432;16.914;2023-05-10T14:12:40;7.40;;;3.90;;
31910;SDS011;18457;52.432;16.914;2023-05-10T14:15:13;9.40;;;3.10;;
31910;SDS011;18457;52.432;16.914;2023-05-10T14:17:46;6.40;;;4.00;;
31910;SDS011;18457;52.432;16.914;2023-05-10T14:20:18;7.10;;;4.40;;
31910;SDS011;18457;52.432;16.914;2023-05-10T14:22:50;8.30;;;3.90;;
31910;SDS011;18457;52.432;16.914;2023-05-10T14:25:22;7.60;;;4.80;;
31910;SDS011;18457;52.432;16.914;2023-05-10T14:27:54;7.20;;;3.90;;
31910;SDS011;18457;52.432;16.914;2023-05-10T14:30:26;5.60;;;4.20;;
31910;SDS011;18457;52.432;16.914;2023-05-10T14:32:58;7.20;;;4.10;;
31910;SDS011;18457;52.432;16.914;2023-05-10T14:35:30;5.70;;;4.00;;
31910;SDS011;18457;52.432;16.914;2023-05-10T14:38:02;8.40;;;3.90;;
31910;SDS011;18457;52.432;16.914;2023-05-10T14:40:34;11.20;;;3.80;;
31910;SDS011;18457;52.432;16.914;2023-05-10T14:43:06;15.50;;;5.50;;
31910;SDS011;18457;52.432;16.914;2023-05-10T14:45:38;7.70;;;4.10;;
31910;SDS011;18457;52.432;16.914;2023-05-10T14:48:10;5.80;;;3.70;;
31910;SDS011;18457;52.432;16.914;2023-05-10T14:50:45;15.00;;;4.40;;
31910;SDS011;18457;52.432;16.914;2023-05-10T14:56:10;11.40;;;4.30;;
31910;SDS011;18457;52.432;16.914;2023-05-10T14:58:43;12.60;;;4.10;;
31910;SDS011;18457;52.432;16.914;2023-05-10T15:03:47;7.30;;;4.00;;
31910;SDS011;18457;52.432;16.914;2023-05-10T15:06:29;9.60;;;4.40;;
31910;SDS011;18457;52.432;16.914;2023-05-10T15:09:03;6.90;;;4.00;;
31910;SDS011;18457;52.432;16.914;2023-05-10T15:11:36;7.30;;;4.30;;
31910;SDS011;18457;52.432;16.914;2023-05-10T15:14:09;10.50;;;4.30;;
31910;SDS011;18457;52.432;16.914;2023-05-10T15:16:42;7.40;;;4.30;;
31910;SDS011;18457;52.432;16.914;2023-05-10T15:19:14;8.20;;;4.60;;
31910;SDS011;18457;52.432;16.914;2023-05-10T15:21:46;8.90;;;4.20;;
31910;SDS011;18457;52.432;16.914;2023-05-10T15:24:20;5.70;;;4.20;;
31910;SDS011;18457;52.432;16.914;2023-05-10T15:26:52;11.00;;;4.40;;
31910;SDS011;18457;52.432;16.914;2023-05-10T15:29:25;10.70;;;4.70;;
31910;SDS011;18457;52.432;16.914;2023-05-10T15:31:56;5.80;;;4.10;;
31910;SDS011;18457;52.432;16.914;2023-05-10T15:34:28;5.40;;;4.40;;
31910;SDS011;18457;52.432;16.914;2023-05-10T15:37:03;6.30;;;4.20;;
31910;SDS011;18457;52.432;16.914;2023-05-10T15:39:35;7.40;;;4.50;;
31910;SDS011;18457;52.432;16.914;2023-05-10T15:42:07;6.30;;;4.10;;